createdAt,value
2019-04-04T04:01:05.400Z,5.57
2019-04-04T04:02:05.588Z,5.51
2019-04-04T04:03:05.739Z,5.57
2019-04-04T04:04:05.910Z,5.56
2019-04-04T04:05:06.085Z,5.59
2019-04-04T04:06:08.894Z,5.66
2019-04-04T04:07:06.423Z,5.71
2019-04-04T04:08:06.664Z,5.69
2019-04-04T04:09:06.787Z,5.76
2019-04-04T04:10:06.958Z,5.75
2019-04-04T04:11:07.158Z,5.90
2019-04-04T04:12:10.178Z,5.86
2019-04-04T04:13:07.542Z,5.89
2019-04-04T04:14:07.641Z,5.87
2019-04-04T04:15:07.823Z,5.86
2019-04-04T04:16:07.980Z,5.79
2019-04-04T04:17:09.085Z,5.75
2019-04-04T04:18:08.330Z,5.73
2019-04-04T04:19:08.498Z,5.80
2019-04-04T04:20:08.659Z,5.75
2019-04-04T04:21:10.832Z,5.75
2019-04-04T04:22:12.607Z,5.68
2019-04-04T04:23:09.169Z,5.83
2019-04-04T04:24:09.340Z,5.82
2019-04-04T04:25:09.509Z,5.73
2019-04-04T04:26:10.000Z,5.84
2019-04-04T04:27:14.366Z,5.87
2019-04-04T04:28:10.023Z,5.83
2019-04-04T04:29:10.192Z,5.87
2019-04-04T04:30:10.369Z,5.80
2019-04-04T04:31:14.016Z,5.82
2019-04-04T04:32:10.700Z,5.86
2019-04-04T04:33:10.874Z,5.84
2019-04-04T04:34:11.046Z,5.80
2019-04-04T04:35:11.214Z,5.80
2019-04-04T04:36:15.226Z,5.76
2019-04-04T04:37:11.554Z,5.84
2019-04-04T04:38:11.723Z,5.86
2019-04-04T04:39:11.896Z,5.91
2019-04-04T04:40:14.910Z,5.91
2019-04-04T04:41:12.234Z,5.94
2019-04-04T04:42:12.422Z,5.90
2019-04-04T04:43:15.510Z,5.90
2019-04-04T04:44:12.749Z,5.86
2019-04-04T04:45:12.927Z,5.86
2019-04-04T04:46:16.830Z,5.80
2019-04-04T04:47:13.255Z,5.91
2019-04-04T04:48:13.424Z,5.97
2019-04-04T04:49:13.593Z,5.89
2019-04-04T04:50:13.763Z,5.97
2019-04-04T04:51:13.936Z,5.94
2019-04-04T04:52:15.093Z,5.83
2019-04-04T04:53:18.478Z,5.89
2019-04-04T04:54:14.446Z,5.98
2019-04-04T04:55:14.620Z,5.86
2019-04-04T04:56:17.392Z,5.98
2019-04-04T04:57:28.746Z,6.01
2019-04-04T04:58:15.157Z,6.11
2019-04-04T04:59:15.305Z,5.98
2019-04-04T05:00:16.023Z,5.94
2019-04-04T05:01:16.205Z,6.20
2019-04-04T05:02:15.812Z,6.14
2019-04-04T05:03:15.982Z,6.14
2019-04-04T05:04:16.152Z,6.14
2019-04-04T05:05:16.322Z,6.22
2019-04-04T05:06:16.494Z,6.20
2019-04-04T05:07:16.663Z,6.02
2019-04-04T05:08:16.835Z,6.17
2019-04-04T05:09:17.004Z,6.16
2019-04-04T05:10:17.177Z,6.08
2019-04-04T05:11:19.123Z,6.11
2019-04-04T05:12:17.515Z,6.14
2019-04-04T05:13:17.683Z,6.01
2019-04-04T05:14:17.858Z,6.07
2019-04-04T05:15:18.028Z,6.11
2019-04-04T05:16:18.200Z,6.02
2019-04-04T05:17:18.370Z,6.01
2019-04-04T05:18:18.537Z,6.02
2019-04-04T05:19:19.044Z,6.11
2019-04-04T05:20:18.877Z,6.12
2019-04-04T05:21:25.018Z,6.17
2019-04-04T05:22:19.220Z,6.09
2019-04-04T05:23:19.388Z,6.09
2019-04-04T05:24:19.558Z,6.12
2019-04-04T05:25:19.733Z,6.20
2019-04-04T05:26:19.901Z,6.24
2019-04-04T05:27:20.089Z,6.24
2019-04-04T05:28:20.241Z,6.11
2019-04-04T05:29:20.412Z,6.20
2019-04-04T05:30:20.689Z,6.11
2019-04-04T05:31:20.752Z,6.11
2019-04-04T05:32:21.755Z,6.08
2019-04-04T05:33:22.834Z,6.08
2019-04-04T05:34:21.275Z,6.02
2019-04-04T05:35:21.497Z,5.99
2019-04-04T05:36:21.607Z,5.98
2019-04-04T05:37:21.777Z,5.99
2019-04-04T05:38:21.948Z,5.91
2019-04-04T05:39:22.119Z,5.89
2019-04-04T05:40:23.577Z,5.89
2019-04-04T05:41:22.462Z,5.90
2019-04-04T05:42:22.628Z,5.91
2019-04-04T05:43:22.799Z,5.86
2019-04-04T05:44:22.977Z,5.89
2019-04-04T05:45:23.142Z,6.04
2019-04-04T05:46:23.331Z,6.04
2019-04-04T05:47:23.939Z,6.02
2019-04-04T05:48:23.656Z,5.99
2019-04-04T05:49:23.832Z,6.08
2019-04-04T05:50:24.006Z,5.93
2019-04-04T05:51:24.191Z,6.04
2019-04-04T05:52:24.344Z,6.04
2019-04-04T05:53:24.511Z,6.11
2019-04-04T05:54:24.679Z,6.04
2019-04-04T05:55:24.853Z,6.16
2019-04-04T05:56:25.030Z,6.17
2019-04-04T05:57:25.203Z,6.27
2019-04-04T05:58:25.358Z,6.14
2019-04-04T05:59:25.540Z,6.08
2019-04-04T06:00:27.278Z,6.02
2019-04-04T06:01:25.872Z,6.04
2019-04-04T06:02:26.055Z,5.98
2019-04-04T06:03:26.226Z,6.04
2019-04-04T06:04:26.408Z,6.09
2019-04-04T06:05:27.195Z,6.02
2019-04-04T06:06:26.739Z,6.02
2019-04-04T06:07:26.912Z,6.12
2019-04-04T06:08:27.092Z,5.94
2019-04-04T06:09:27.248Z,5.89
2019-04-04T06:10:27.422Z,5.98
2019-04-04T06:11:27.592Z,6.01
2019-04-04T06:12:27.782Z,5.87
2019-04-04T06:13:27.942Z,5.99
2019-04-04T06:14:30.014Z,5.93
2019-04-04T06:15:30.020Z,5.98
2019-04-04T06:16:28.429Z,6.01
2019-04-04T06:17:28.599Z,5.90
2019-04-04T06:18:28.770Z,5.97
2019-04-04T06:19:28.943Z,5.97
2019-04-04T06:20:29.115Z,5.91
2019-04-04T06:21:29.287Z,6.01
2019-04-04T06:22:29.454Z,5.98
2019-04-04T06:23:29.625Z,6.05
2019-04-04T06:24:29.794Z,6.02
2019-04-04T06:25:34.285Z,6.09
2019-04-04T06:26:30.135Z,6.05
2019-04-04T06:27:30.303Z,6.01
2019-04-04T06:28:30.472Z,6.14
2019-04-04T06:29:30.644Z,6.14
2019-04-04T06:30:42.586Z,6.05
2019-04-04T06:31:31.041Z,5.91
2019-04-04T06:32:31.618Z,6.09
2019-04-04T06:33:34.926Z,6.24
2019-04-04T06:34:31.489Z,6.12
2019-04-04T06:35:31.658Z,6.20
2019-04-04T06:36:31.830Z,6.16
2019-04-04T06:37:34.192Z,6.20
2019-04-04T06:38:32.169Z,6.27
2019-04-04T06:39:32.337Z,6.19
2019-04-04T06:40:32.507Z,6.30
2019-04-04T06:41:32.838Z,6.27
2019-04-04T06:42:35.906Z,6.31
2019-04-04T06:43:33.026Z,6.27
2019-04-04T06:44:33.192Z,6.30
2019-04-04T06:45:33.364Z,6.39
2019-04-04T06:46:33.536Z,6.46
2019-04-04T06:47:33.704Z,6.46
2019-04-04T06:48:33.992Z,6.38
2019-04-04T06:49:35.508Z,6.39
2019-04-04T06:50:34.218Z,6.44
2019-04-04T06:51:34.388Z,6.41
2019-04-04T06:52:34.559Z,6.42
2019-04-04T06:53:34.733Z,6.49
2019-04-04T06:54:34.897Z,6.46
2019-04-04T06:55:39.795Z,6.42
2019-04-04T06:56:35.242Z,6.59
2019-04-04T06:57:36.553Z,6.64
2019-04-04T07:01:07.313Z,6.70
2019-04-04T07:02:07.478Z,6.72
2019-04-04T07:03:07.683Z,6.77
2019-04-04T07:04:07.818Z,6.74
2019-04-04T07:05:10.423Z,6.69
2019-04-04T07:06:10.216Z,6.79
2019-04-04T07:07:08.331Z,6.82
2019-04-04T07:08:08.497Z,6.81
2019-04-04T07:09:08.670Z,6.96
2019-04-04T07:10:08.837Z,6.92
2019-04-04T07:11:21.122Z,6.88
2019-04-04T07:12:20.857Z,6.84
2019-04-04T07:13:21.130Z,6.84
2019-04-04T07:14:09.517Z,6.85
2019-04-04T07:15:12.494Z,6.85
2019-04-04T07:16:09.856Z,6.85
2019-04-04T07:17:10.064Z,6.89
2019-04-04T07:18:12.310Z,6.95
2019-04-04T07:19:14.277Z,6.93
2019-04-04T07:20:10.536Z,7.03
2019-04-04T07:21:10.704Z,7.06
2019-04-04T07:22:10.873Z,7.14
2019-04-04T07:23:14.085Z,7.10
2019-04-04T07:24:11.226Z,7.07
2019-04-04T07:25:11.412Z,7.18
2019-04-04T07:26:14.748Z,7.07
2019-04-04T07:27:11.766Z,7.20
2019-04-04T07:28:11.936Z,7.15
2019-04-04T07:29:12.105Z,7.23
2019-04-04T07:30:15.198Z,7.20
2019-04-04T07:31:12.447Z,7.33
2019-04-04T07:32:12.616Z,7.39
2019-04-04T07:33:12.964Z,7.51
2019-04-04T07:34:13.826Z,7.58
2019-04-04T07:35:13.129Z,7.67
2019-04-04T07:36:13.302Z,7.77
2019-04-04T07:37:13.472Z,7.88
2019-04-04T07:38:13.643Z,7.94
2019-04-04T07:39:13.813Z,8.00
2019-04-04T07:40:13.986Z,7.91
2019-04-04T07:41:14.826Z,7.87
2019-04-04T07:42:15.893Z,7.98
2019-04-04T07:43:14.495Z,7.93
2019-04-04T07:44:14.665Z,8.05
2019-04-04T07:45:14.835Z,8.16
2019-04-04T07:46:16.597Z,8.30
2019-04-04T07:47:16.201Z,8.27
2019-04-04T07:48:17.685Z,8.42
2019-04-04T07:49:15.517Z,8.41
2019-04-04T07:50:15.691Z,8.48
2019-04-04T07:51:15.858Z,8.44
2019-04-04T07:52:17.318Z,8.46
2019-04-04T07:53:16.193Z,8.37
2019-04-04T07:54:16.365Z,8.45
2019-04-04T07:55:16.534Z,8.46
2019-04-04T07:56:16.707Z,8.41
2019-04-04T07:57:19.462Z,8.36
2019-04-04T07:58:17.050Z,8.31
2019-04-04T07:59:17.225Z,8.41
2019-04-04T08:00:17.395Z,8.37
2019-04-04T08:01:17.567Z,8.37
2019-04-04T08:02:17.736Z,8.27
2019-04-04T08:03:17.907Z,8.36
2019-04-04T08:04:18.079Z,8.36
2019-04-04T08:05:18.247Z,8.38
2019-04-04T08:06:18.423Z,8.41
2019-04-04T08:07:18.592Z,8.55
2019-04-04T08:08:18.760Z,8.53
2019-04-04T08:09:18.931Z,8.58
2019-04-04T08:10:20.915Z,8.51
2019-04-04T08:11:19.273Z,8.56
2019-04-04T08:12:19.444Z,8.61
2019-04-04T08:13:19.614Z,8.58
2019-04-04T08:14:19.784Z,8.64
2019-04-04T08:15:19.957Z,8.61
2019-04-04T08:16:20.124Z,8.60
2019-04-04T08:17:20.296Z,8.61
2019-04-04T08:18:20.466Z,8.56
2019-04-04T08:19:20.637Z,8.51
2019-04-04T08:20:20.807Z,8.41
2019-04-04T08:21:20.978Z,8.58
2019-04-04T08:22:21.258Z,8.55
2019-04-04T08:23:21.321Z,8.45
2019-04-04T08:24:21.490Z,8.53
2019-04-04T08:25:21.660Z,8.63
2019-04-04T08:26:21.831Z,8.63
2019-04-04T08:27:22.003Z,8.63
2019-04-04T08:28:22.174Z,8.61
2019-04-04T08:29:22.346Z,8.60
2019-04-04T08:30:22.516Z,8.63
2019-04-04T08:31:22.687Z,8.69
2019-04-04T08:32:22.858Z,8.74
2019-04-04T08:33:23.027Z,8.84
2019-04-04T08:34:23.199Z,8.87
2019-04-04T08:35:23.372Z,8.85
2019-04-04T08:36:23.544Z,8.89
2019-04-04T08:37:23.714Z,8.92
2019-04-04T08:38:23.886Z,8.87
2019-04-04T08:39:24.056Z,8.89
2019-04-04T08:40:24.224Z,9.00
2019-04-04T08:41:24.395Z,9.13
2019-04-04T08:42:24.569Z,9.02
2019-04-04T08:43:24.738Z,9.02
2019-04-04T08:44:24.911Z,9.10
2019-04-04T08:45:25.081Z,9.11
2019-04-04T08:46:25.253Z,9.16
2019-04-04T08:47:25.422Z,9.32
2019-04-04T08:48:25.596Z,9.32
2019-04-04T08:49:25.771Z,9.32
2019-04-04T08:50:25.935Z,9.37
2019-04-04T08:51:26.105Z,9.36
2019-04-04T08:52:26.276Z,9.40
2019-04-04T08:53:38.957Z,9.34
2019-04-04T08:54:26.619Z,9.29
2019-04-04T08:55:26.789Z,9.40
2019-04-04T08:56:26.960Z,9.37
2019-04-04T08:57:27.133Z,9.36
2019-04-04T08:58:27.303Z,9.36
2019-04-04T08:59:27.475Z,9.23
2019-04-04T09:00:27.644Z,9.14
2019-04-04T09:01:27.816Z,9.21
2019-04-04T09:02:27.986Z,9.18
2019-04-04T09:03:28.156Z,8.94
2019-04-04T09:04:28.327Z,8.95
2019-04-04T09:05:28.499Z,8.95
2019-04-04T09:06:29.353Z,8.89
2019-04-04T09:09:00.340Z,8.87
2019-04-04T09:10:00.510Z,8.88
2019-04-04T09:11:00.684Z,8.84
2019-04-04T09:12:00.850Z,8.88
2019-04-04T09:13:01.021Z,8.92
2019-04-04T09:14:01.191Z,8.89
2019-04-04T09:15:01.365Z,8.97
2019-04-04T09:16:01.537Z,9.04
2019-04-04T09:17:01.704Z,9.08
2019-04-04T09:18:01.873Z,9.06
2019-04-04T09:19:02.055Z,9.11
2019-04-04T09:20:02.217Z,9.08
2019-04-04T09:21:02.388Z,9.22
2019-04-04T09:22:02.556Z,9.28
2019-04-04T09:23:02.726Z,9.26
2019-04-04T09:24:02.897Z,9.36
2019-04-04T09:25:04.112Z,9.29
2019-04-04T09:26:05.809Z,9.36
2019-04-04T09:27:03.406Z,9.36
2019-04-04T09:28:03.578Z,9.46
2019-04-04T09:29:03.748Z,9.46
2019-04-04T09:30:03.919Z,9.48
2019-04-04T09:31:04.092Z,9.41
2019-04-04T09:32:04.265Z,9.41
2019-04-04T09:33:04.436Z,9.44
2019-04-04T09:34:04.606Z,9.44
2019-04-04T09:35:04.776Z,9.34
2019-04-04T09:36:04.951Z,9.36
2019-04-04T09:37:05.122Z,9.21
2019-04-04T09:38:05.292Z,9.25
2019-04-04T09:39:05.463Z,9.28
2019-04-04T09:40:05.635Z,9.40
2019-04-04T09:41:05.811Z,9.47
2019-04-04T09:42:05.976Z,9.56
2019-04-04T09:43:06.149Z,9.55
2019-04-04T09:44:06.364Z,9.51
2019-04-04T09:45:06.491Z,9.43
2019-04-04T09:46:06.660Z,9.44
2019-04-04T09:47:06.832Z,9.36
2019-04-04T09:48:07.001Z,9.40
2019-04-04T09:49:07.172Z,9.44
2019-04-04T09:50:07.348Z,9.50
2019-04-04T09:51:07.516Z,9.40
2019-04-04T09:52:07.685Z,9.26
2019-04-04T09:53:07.857Z,9.31
2019-04-04T09:54:08.028Z,9.41
2019-04-04T09:55:08.205Z,9.44
2019-04-04T09:56:08.373Z,9.34
2019-04-04T09:57:08.544Z,9.44
2019-04-04T09:58:08.774Z,9.58
2019-04-04T09:59:08.883Z,9.58
2019-04-04T10:00:09.053Z,9.59
2019-04-04T10:01:09.226Z,9.68
2019-04-04T10:02:09.397Z,9.65
2019-04-04T10:03:09.569Z,9.66
2019-04-04T10:04:09.738Z,9.61
2019-04-04T10:05:09.912Z,9.65
2019-04-04T10:06:10.080Z,9.68
2019-04-04T10:07:10.473Z,9.72
2019-04-04T10:08:10.426Z,9.68
2019-04-04T10:09:15.865Z,9.65
2019-04-04T10:10:10.764Z,9.54
2019-04-04T10:11:10.937Z,9.64
2019-04-04T10:12:11.109Z,9.54
2019-04-04T10:13:11.279Z,9.58
2019-04-04T10:14:11.451Z,9.58
2019-04-04T10:15:11.621Z,9.46
2019-04-04T10:16:11.793Z,9.46
2019-04-04T10:17:11.964Z,9.48
2019-04-04T10:18:12.135Z,9.48
2019-04-04T10:19:12.306Z,9.46
2019-04-04T10:20:12.480Z,9.41
2019-04-04T10:21:12.772Z,9.40
2019-04-04T10:22:12.818Z,9.46
2019-04-04T10:23:13.244Z,9.37
2019-04-04T10:24:13.161Z,9.43
2019-04-04T10:25:13.333Z,9.36
2019-04-04T10:26:13.504Z,9.41
2019-04-04T10:27:13.673Z,9.32
2019-04-04T10:28:13.847Z,9.41
2019-04-04T10:29:14.023Z,9.41
2019-04-04T10:30:14.189Z,9.51
2019-04-04T10:31:14.361Z,9.40
2019-04-04T10:32:14.532Z,9.29
2019-04-04T10:33:14.703Z,9.39
2019-04-04T10:34:14.875Z,9.37
2019-04-04T10:35:15.047Z,9.36
2019-04-04T10:36:15.219Z,9.37
2019-04-04T10:37:15.387Z,9.47
2019-04-04T10:38:15.560Z,9.47
2019-04-04T10:39:28.073Z,9.50
2019-04-04T10:40:15.901Z,9.46
2019-04-04T10:41:16.073Z,9.44
2019-04-04T10:42:16.245Z,9.39
2019-04-04T10:43:16.416Z,9.50
2019-04-04T10:44:16.589Z,9.39
2019-04-04T10:45:16.756Z,9.39
2019-04-04T10:46:16.930Z,9.48
2019-04-04T10:47:17.098Z,9.66
2019-04-04T10:48:17.270Z,9.56
2019-04-04T10:49:17.439Z,9.59
2019-04-04T10:50:17.610Z,9.69
2019-04-04T10:51:17.781Z,9.72
2019-04-04T10:52:17.952Z,9.72
2019-04-04T10:53:18.129Z,9.72
2019-04-04T10:54:18.298Z,9.72
2019-04-04T10:55:18.474Z,9.73
2019-04-04T10:56:18.639Z,9.73
2019-04-04T10:57:18.814Z,9.73
2019-04-04T10:58:18.982Z,9.76
2019-04-04T10:59:19.154Z,9.76
2019-04-04T11:00:19.412Z,9.74
2019-04-04T11:01:19.494Z,9.87
2019-04-04T11:02:19.663Z,9.92
2019-04-04T11:03:19.834Z,9.98
2019-04-04T11:04:20.005Z,10.04
2019-04-04T11:05:20.175Z,10.05
2019-04-04T11:06:20.348Z,10.05
2019-04-04T11:07:20.519Z,10.04
2019-04-04T11:08:20.689Z,10.12
2019-04-04T11:09:20.860Z,10.05
2019-04-04T11:10:21.032Z,9.98
2019-04-04T11:11:21.205Z,10.02
2019-04-04T11:12:21.385Z,9.97
2019-04-04T11:13:32.897Z,10.07
2019-04-04T11:14:21.717Z,10.04
2019-04-04T11:15:21.892Z,10.05
2019-04-04T11:16:30.168Z,10.10
2019-04-04T11:17:22.234Z,10.13
2019-04-04T11:18:22.404Z,10.12
2019-04-04T11:19:31.115Z,10.16
2019-04-04T11:20:22.747Z,10.17
2019-04-04T11:21:22.921Z,10.20
2019-04-04T11:22:23.091Z,10.28
2019-04-04T11:23:23.264Z,10.33
2019-04-04T11:24:23.437Z,10.40
2019-04-04T11:25:23.605Z,10.49
2019-04-04T11:26:23.776Z,10.41
2019-04-04T11:27:23.948Z,10.46
2019-04-04T11:28:24.120Z,10.67
2019-04-04T11:29:24.290Z,10.75
2019-04-04T11:30:24.463Z,10.69
2019-04-04T11:31:24.634Z,10.72
2019-04-04T11:32:24.804Z,10.86
2019-04-04T11:33:24.977Z,10.94
2019-04-04T11:34:25.149Z,10.94
2019-04-04T11:35:25.318Z,10.86
2019-04-04T11:36:25.493Z,10.86
2019-04-04T11:37:25.661Z,10.87
2019-04-04T11:38:25.837Z,10.75
2019-04-04T11:39:26.005Z,10.67
2019-04-04T11:40:26.178Z,10.63
2019-04-04T11:41:26.350Z,10.71
2019-04-04T11:42:26.523Z,10.64
2019-04-04T11:43:26.694Z,10.56
2019-04-04T11:44:26.865Z,10.54
2019-04-04T11:45:27.042Z,10.56
2019-04-04T11:46:27.210Z,10.60
2019-04-04T11:47:27.386Z,10.64
2019-04-04T11:48:27.558Z,10.74
2019-04-04T11:49:28.233Z,10.75
2019-04-04T11:50:27.895Z,10.72
2019-04-04T11:51:28.069Z,10.74
2019-04-04T11:52:28.240Z,10.82
2019-04-04T11:53:28.411Z,10.67
2019-04-04T11:54:28.585Z,10.82
2019-04-04T11:55:28.772Z,10.79
2019-04-04T11:56:28.935Z,10.71
2019-04-04T11:57:29.157Z,10.57
2019-04-04T11:58:29.277Z,10.51
2019-04-04T11:59:29.449Z,10.54
2019-04-04T12:00:29.622Z,10.61
2019-04-04T12:01:29.792Z,10.59
2019-04-04T12:02:32.417Z,10.71
2019-04-04T12:03:30.135Z,10.60
2019-04-04T12:04:30.318Z,10.53
2019-04-04T12:05:30.482Z,10.44
2019-04-04T12:06:30.654Z,10.41
2019-04-04T12:07:30.827Z,10.54
2019-04-04T12:08:30.999Z,10.49
2019-04-04T12:09:31.170Z,10.54
2019-04-04T12:10:31.343Z,10.38
2019-04-04T12:11:31.519Z,10.48
2019-04-04T12:12:31.687Z,10.37
2019-04-04T12:13:31.859Z,10.48
2019-04-04T12:14:32.041Z,10.41
2019-04-04T12:15:32.203Z,10.59
2019-04-04T12:16:32.859Z,10.67
2019-04-04T12:17:32.547Z,10.61
2019-04-04T12:18:32.722Z,10.64
2019-04-04T12:19:32.893Z,10.71
2019-04-04T12:20:33.066Z,10.75
2019-04-04T12:21:33.237Z,10.68
2019-04-04T12:22:33.410Z,10.63
2019-04-04T12:23:33.582Z,10.56
2019-04-04T12:24:33.752Z,10.61
2019-04-04T12:25:33.926Z,10.59
2019-04-04T12:26:34.096Z,10.51
2019-04-04T12:27:34.267Z,10.67
2019-04-04T12:28:34.441Z,10.64
2019-04-04T12:29:34.613Z,10.76
2019-04-04T12:30:34.784Z,10.79
2019-04-04T12:31:34.962Z,10.78
2019-04-04T12:32:35.130Z,10.79
2019-04-04T12:33:35.303Z,10.76
2019-04-04T12:34:35.472Z,10.79
2019-04-04T12:35:35.647Z,10.81
2019-04-04T12:36:35.817Z,10.84
2019-04-04T12:37:35.989Z,10.79
2019-04-04T12:38:36.160Z,10.74
2019-04-04T12:39:36.332Z,10.78
2019-04-04T12:40:36.507Z,10.74
2019-04-04T12:41:36.685Z,10.79
2019-04-04T12:42:36.855Z,10.84
2019-04-04T12:43:37.027Z,10.86
2019-04-04T12:44:37.198Z,10.86
2019-04-04T12:45:37.370Z,10.90
2019-04-04T12:46:37.551Z,10.96
2019-04-04T12:47:37.714Z,10.99
2019-04-04T12:48:37.888Z,10.93
2019-04-04T12:49:38.060Z,10.92
2019-04-04T12:50:38.233Z,10.97
2019-04-04T12:51:38.405Z,10.96
2019-04-04T12:52:38.579Z,10.93
2019-04-04T12:53:38.751Z,10.97
2019-04-04T12:54:38.923Z,11.04
2019-04-04T12:55:39.095Z,10.97
2019-04-04T12:56:39.267Z,11.02
2019-04-04T12:57:39.439Z,10.96
2019-04-04T12:58:39.615Z,10.92
2019-04-04T12:59:39.787Z,10.90
2019-04-04T13:00:39.957Z,10.94
2019-04-04T13:01:40.129Z,10.97
2019-04-04T13:02:40.301Z,10.94
2019-04-04T13:03:40.474Z,10.87
2019-04-04T13:04:40.647Z,10.86
2019-04-04T13:05:40.822Z,10.87
2019-04-04T13:06:40.990Z,10.86
2019-04-04T13:07:41.162Z,10.79
2019-04-04T13:08:41.335Z,10.84
2019-04-04T13:09:41.506Z,10.86
2019-04-04T13:10:41.678Z,10.89
2019-04-04T13:11:41.853Z,10.84
2019-04-04T13:12:42.026Z,10.75
2019-04-04T13:13:42.198Z,10.69
2019-04-04T13:14:42.367Z,10.87
2019-04-04T13:15:42.537Z,10.79
2019-04-04T13:16:42.713Z,10.89
2019-04-04T13:17:42.887Z,10.76
2019-04-04T13:18:43.061Z,10.90
2019-04-04T13:19:43.228Z,10.86
2019-04-04T13:20:43.398Z,10.82
2019-04-04T13:21:43.569Z,10.90
2019-04-04T13:22:43.740Z,10.79
2019-04-04T13:23:43.914Z,10.81
2019-04-04T13:24:44.087Z,10.64
2019-04-04T13:25:44.259Z,10.63
2019-04-04T13:26:44.429Z,10.67
2019-04-04T13:27:44.602Z,10.72
2019-04-04T13:28:44.774Z,10.67
2019-04-04T13:29:44.946Z,10.68
2019-04-04T13:30:45.119Z,10.72
2019-04-04T13:31:45.289Z,10.72
2019-04-04T13:32:45.462Z,10.96
2019-04-04T13:33:45.634Z,10.96
2019-04-04T13:34:58.327Z,11.00
2019-04-04T13:35:45.978Z,11.15
2019-04-04T13:36:46.150Z,11.15
2019-04-04T13:37:46.321Z,11.18
2019-04-04T13:38:46.493Z,11.12
2019-04-04T13:39:46.665Z,11.14
2019-04-04T13:40:46.844Z,11.15
2019-04-04T13:41:47.010Z,11.26
2019-04-04T13:42:47.180Z,11.29
2019-04-04T13:43:47.354Z,11.17
2019-04-04T13:44:47.525Z,11.17
2019-04-04T13:45:47.698Z,11.25
2019-04-04T13:46:47.867Z,11.29
2019-04-04T13:47:48.052Z,11.29
2019-04-04T13:48:48.210Z,11.43
2019-04-04T13:49:48.382Z,11.51
2019-04-04T13:50:48.560Z,11.62
2019-04-04T13:51:48.735Z,11.59
2019-04-04T13:52:48.901Z,11.75
2019-04-04T13:53:49.075Z,11.90
2019-04-04T13:54:49.246Z,12.02
2019-04-04T13:55:49.421Z,12.10
2019-04-04T13:56:49.593Z,12.20
2019-04-04T13:57:49.764Z,12.31
2019-04-04T13:58:49.938Z,12.40
2019-04-04T13:59:50.110Z,12.42
2019-04-04T14:00:50.282Z,12.53
2019-04-04T14:01:50.454Z,12.47
2019-04-04T14:02:50.628Z,12.40
2019-04-04T14:03:50.800Z,12.57
2019-04-04T14:04:50.974Z,12.67
2019-04-04T14:05:51.144Z,12.75
2019-04-04T14:06:51.316Z,12.55
2019-04-04T14:07:51.487Z,12.67
2019-04-04T14:08:51.661Z,12.62
2019-04-04T14:09:51.841Z,12.54
2019-04-04T14:10:57.978Z,12.42
2019-04-04T14:11:52.197Z,12.42
2019-04-04T14:12:52.350Z,12.42
2019-04-04T14:13:52.521Z,12.39
2019-04-04T14:14:52.692Z,12.39
2019-04-04T14:15:52.862Z,12.25
2019-04-04T14:16:53.039Z,12.20
2019-04-04T14:17:53.212Z,12.21
2019-04-04T14:18:53.382Z,12.17
2019-04-04T14:19:53.556Z,12.07
2019-04-04T14:21:03.586Z,12.10
2019-04-04T14:21:53.901Z,12.06
2019-04-04T14:22:54.170Z,12.03
2019-04-04T14:23:56.773Z,11.87
2019-04-04T14:24:54.419Z,11.80
2019-04-04T14:25:54.590Z,11.73
2019-04-04T14:26:54.768Z,11.87
2019-04-04T14:27:57.863Z,11.80
2019-04-04T14:28:55.111Z,11.68
2019-04-04T14:29:55.511Z,11.73
2019-04-04T14:30:55.457Z,11.75
2019-04-04T14:31:55.630Z,11.55
2019-04-04T14:32:55.800Z,11.57
2019-04-04T14:33:55.974Z,11.62
2019-04-04T14:34:56.146Z,11.60
2019-04-04T14:35:56.324Z,11.68
2019-04-04T14:36:56.498Z,11.68
2019-04-04T14:37:56.665Z,11.69
2019-04-04T14:38:56.837Z,11.81
2019-04-04T14:39:57.011Z,11.86
2019-04-04T14:41:09.977Z,11.95
2019-04-04T14:41:57.355Z,11.99
2019-04-04T14:42:57.531Z,11.95
2019-04-04T14:43:59.948Z,12.03
2019-04-04T14:44:57.932Z,12.03
2019-04-04T14:45:58.049Z,11.97
2019-04-04T14:46:58.224Z,12.00
2019-04-04T14:47:58.400Z,11.94
2019-04-04T14:48:58.571Z,11.87
2019-04-04T14:49:58.742Z,11.90
2019-04-04T14:50:58.927Z,11.78
2019-04-04T14:51:59.090Z,11.70
2019-04-04T14:52:59.264Z,11.75
2019-04-04T14:53:59.436Z,11.68
2019-04-04T14:54:59.614Z,11.70
2019-04-04T14:55:59.780Z,11.65
2019-04-04T14:56:59.954Z,11.59
2019-04-04T14:58:00.128Z,11.57
2019-04-04T14:59:00.370Z,11.57
2019-04-04T15:00:00.469Z,11.55
2019-04-04T15:01:00.641Z,11.54
2019-04-04T15:02:00.814Z,11.37
2019-04-04T15:03:00.986Z,11.36
2019-04-04T15:04:01.160Z,11.18
2019-04-04T15:05:01.332Z,11.02
2019-04-04T15:06:01.505Z,10.97
2019-04-04T15:07:01.676Z,10.81
2019-04-04T15:08:01.854Z,10.92
2019-04-04T15:09:02.029Z,10.79
2019-04-04T15:10:02.195Z,10.92
2019-04-04T15:11:02.371Z,10.79
2019-04-04T15:12:02.541Z,10.81
2019-04-04T15:13:02.711Z,10.69
2019-04-04T15:14:02.886Z,10.74
2019-04-04T15:15:03.057Z,10.61
2019-04-04T15:16:03.226Z,10.57
2019-04-04T15:17:03.399Z,10.63
2019-04-04T15:18:03.576Z,10.59
2019-04-04T15:19:03.751Z,10.53
2019-04-04T15:20:03.918Z,10.41
2019-04-04T15:21:04.092Z,10.38
2019-04-04T15:22:04.268Z,10.53
2019-04-04T15:23:04.434Z,10.48
2019-04-04T15:24:04.605Z,10.41
2019-04-04T15:25:04.780Z,10.54
2019-04-04T15:26:04.953Z,10.38
2019-04-04T15:27:05.124Z,10.20
2019-04-04T15:28:05.297Z,10.34
2019-04-04T15:29:05.468Z,10.12
2019-04-04T15:30:05.643Z,10.07
2019-04-04T15:31:05.812Z,9.98
2019-04-04T15:32:06.026Z,10.02
2019-04-04T15:33:06.158Z,9.99
2019-04-04T15:34:06.331Z,9.98
2019-04-04T15:35:06.503Z,9.97
2019-04-04T15:36:06.679Z,9.97
2019-04-04T15:37:06.838Z,9.97
2019-04-04T15:38:07.007Z,9.99
2019-04-04T15:39:07.193Z,10.01
2019-04-04T15:40:07.371Z,9.98
2019-04-04T15:41:07.520Z,9.94
2019-04-04T15:42:07.694Z,9.92
2019-04-04T15:43:07.865Z,9.89
2019-04-04T15:44:08.035Z,9.89
2019-04-04T15:45:08.211Z,9.82
2019-04-04T15:46:11.317Z,9.86
2019-04-04T15:47:08.551Z,9.83
2019-04-04T15:48:08.723Z,9.95
2019-04-04T15:49:08.894Z,9.94
2019-04-04T15:50:09.064Z,9.91
2019-04-04T15:51:09.236Z,9.97
2019-04-04T15:52:09.409Z,9.95
2019-04-04T15:53:09.581Z,9.91
2019-04-04T15:54:09.752Z,9.91
2019-04-04T15:55:09.925Z,9.89
2019-04-04T15:56:10.106Z,9.89
2019-04-04T15:57:10.267Z,9.80
2019-04-04T15:58:10.441Z,9.89
2019-04-04T15:59:10.618Z,9.84
2019-04-04T16:00:10.781Z,9.82
2019-04-04T16:01:10.952Z,9.94
2019-04-04T16:02:11.123Z,9.83
2019-04-04T16:03:11.299Z,9.77
2019-04-04T16:04:11.467Z,9.83
2019-04-04T16:05:11.638Z,9.77
2019-04-04T16:06:11.815Z,9.87
2019-04-04T16:07:11.983Z,9.84
2019-04-04T16:08:12.155Z,9.74
2019-04-04T16:09:12.330Z,9.79
2019-04-04T16:10:12.504Z,9.69
2019-04-04T16:11:12.674Z,9.82
2019-04-04T16:12:12.845Z,9.76
2019-04-04T16:13:13.011Z,9.74
2019-04-04T16:14:13.184Z,9.64
2019-04-04T16:15:13.357Z,9.72
2019-04-04T16:16:13.532Z,9.74
2019-04-04T16:17:13.705Z,9.65
2019-04-04T16:18:13.875Z,9.68
2019-04-04T16:19:14.045Z,9.73
2019-04-04T16:20:14.216Z,9.72
2019-04-04T16:21:14.389Z,9.74
2019-04-04T16:22:14.557Z,9.61
2019-04-04T16:23:14.728Z,9.59
2019-04-04T16:24:14.901Z,9.65
2019-04-04T16:25:15.070Z,9.66
2019-04-04T16:26:15.242Z,9.73
2019-04-04T16:27:15.420Z,9.69
2019-04-04T16:28:15.583Z,9.59
2019-04-04T16:29:15.773Z,9.72
2019-04-04T16:30:15.933Z,9.68
2019-04-04T16:31:16.110Z,9.73
2019-04-04T16:32:16.279Z,9.65
2019-04-04T16:33:16.449Z,9.64
2019-04-04T16:34:16.619Z,9.64
2019-04-04T16:35:16.793Z,9.58
2019-04-04T16:36:16.969Z,9.58
2019-04-04T16:37:17.142Z,9.56
2019-04-04T16:38:17.311Z,9.55
2019-04-04T16:39:17.483Z,9.54
2019-04-04T16:40:17.654Z,9.58
2019-04-04T16:41:17.823Z,9.61
2019-04-04T16:42:17.995Z,9.58
2019-04-04T16:43:18.162Z,9.51
2019-04-04T16:44:18.336Z,9.48
2019-04-04T16:45:18.505Z,9.40
2019-04-04T16:46:18.680Z,9.44
2019-04-04T16:47:18.845Z,9.54
2019-04-04T16:48:19.018Z,9.55
2019-04-04T16:49:19.188Z,9.51
2019-04-04T16:50:19.358Z,9.47
2019-04-04T16:51:19.532Z,9.47
2019-04-04T16:52:19.703Z,9.37
2019-04-04T16:53:19.875Z,9.51
2019-04-04T16:54:20.043Z,9.54
2019-04-04T16:55:20.224Z,9.39
2019-04-04T16:56:20.374Z,9.46
2019-04-04T16:57:20.565Z,9.44
2019-04-04T16:58:20.736Z,9.32
2019-04-04T16:59:20.909Z,9.40
2019-04-04T17:00:21.153Z,9.43
2019-04-04T17:01:21.267Z,9.31
2019-04-04T17:02:21.418Z,9.34
2019-04-04T17:03:21.588Z,9.34
2019-04-04T17:04:21.760Z,9.34
2019-04-04T17:05:21.933Z,9.36
2019-04-04T17:06:22.103Z,9.41
2019-04-04T17:07:22.272Z,9.28
2019-04-04T17:08:22.443Z,9.26
2019-04-04T17:09:22.623Z,9.32
2019-04-04T17:10:22.796Z,9.32
2019-04-04T17:11:22.960Z,9.36
2019-04-04T17:12:23.130Z,9.32
2019-04-04T17:13:23.327Z,9.23
2019-04-04T17:14:23.539Z,9.28
2019-04-04T17:15:23.654Z,9.31
2019-04-04T17:16:23.825Z,9.25